Time;durP1;ratioP1;P1;durP2;ratioP2;P2;SDS_P1;SDS_P2;PMS_P1;PMS_P2;Temp;Humidity;BMP_temperature;BMP_pressure;BME280_temperature;BME280_humidity;BME280_pressure;Samples;Min_cycle;Max_cycle;Signal;HPM_P1;HPM_P2
2022/07/23 00:01:35;;;;;;;;;;;;;;;21.88;62.22;96517.97;5058670;28;19957;-73
2022/07/23 00:04:02;;;;;;;;;;;;;;;21.88;62.61;96503.78;5076169;28;19983;-73
2022/07/23 00:06:27;;;;;;;;;;;;;;;21.92;62.57;96514.69;5076125;28;19954;-73
2022/07/23 00:08:53;;;;;;;;;;;;;;;21.94;64.38;96529.34;5075802;28;20316;-73
2022/07/23 00:11:19;;;;;;;;;;;;;;;21.93;62.10;96522.41;5076596;28;19982;-73
2022/07/23 00:13:45;;;;;;;;;;;;;;;21.89;63.05;96516.84;5076321;28;20051;-73
2022/07/23 00:16:11;;;;;;;;;;;;;;;21.89;63.66;96526.75;5075822;28;20050;-73
2022/07/23 00:18:37;;;;;;;;;;;;;;;21.89;64.35;96527.53;5075658;28;19963;-73
2022/07/23 00:21:03;;;;;;;;;;;;;;;21.86;62.66;96506.00;5075679;28;20007;-74
2022/07/23 00:23:30;;;;;;;;;;;;;;;21.82;62.32;96491.63;5059358;28;20335;-72
2022/07/23 00:25:56;;;;;;;;;;;;;;;21.78;64.52;96504.75;5076133;28;19959;-73
2022/07/23 00:28:22;;;;;;;;;;;;;;;21.77;65.05;96507.69;5075104;28;19994;-74
2022/07/23 00:30:48;;;;;;;;;;;;;;;21.71;65.43;96490.16;5074765;28;20040;-73
2022/07/23 00:33:14;;;;;;;;;;;;;;;21.63;65.10;96471.06;5075787;28;19963;-73
2022/07/23 00:35:40;;;;;;;;;;;;;;;21.56;60.93;96411.91;5074391;28;19993;-73
2022/07/23 00:38:07;;;;;;;;;;;;;;;21.54;62.82;96485.31;5075448;28;20394;-73
2022/07/23 00:40:33;;;;;;;;;;;;;;;21.54;62.59;96485.31;5063972;28;19952;-73
2022/07/23 00:42:59;;;;;;;;;;;;;;;21.53;61.55;96467.72;5075547;28;19970;-73
2022/07/23 00:45:25;;;;;;;;;;;;;;;21.50;62.30;96479.75;5075451;28;20041;-74
2022/07/23 00:47:51;;;;;;;;;;;;;;;21.49;61.68;96462.16;5075442;28;20016;-73
2022/07/23 00:50:16;;;;;;;;;;;;;;;21.48;62.20;96460.56;5074999;28;20494;-73
2022/07/23 00:52:42;;;;;;;;;;;;;;;21.49;62.91;96464.84;5075244;28;19964;-73
2022/07/23 00:55:09;;;;;;;;;;;;;;;21.48;64.30;96484.59;5075287;28;20042;-72
2022/07/23 00:57:36;;;;;;;;;;;;;;;21.47;65.31;96478.47;5074762;28;20402;-73
2022/07/23 01:00:03;;;;;;;;;;;;;;;21.43;64.28;96466.78;5074725;28;20306;-73
2022/07/23 01:02:28;;;;;;;;;;;;;;;21.34;64.13;96471.13;5075147;28;19959;-73
2022/07/23 01:04:54;;;;;;;;;;;;;;;21.25;65.31;96492.31;5074395;28;20374;-73
2022/07/23 01:07:21;;;;;;;;;;;;;;;21.21;63.58;96482.50;5074798;28;19964;-72
2022/07/23 01:09:47;;;;;;;;;;;;;;;21.13;63.41;96470.59;5074638;28;19994;-73
2022/07/23 01:12:13;;;;;;;;;;;;;;;21.08;64.72;96459.97;5074638;28;19986;-73
2022/07/23 01:14:39;;;;;;;;;;;;;;;21.04;65.61;96454.44;5074765;28;20346;-72
2022/07/23 01:17:05;;;;;;;;;;;;;;;21.06;66.32;96454.13;5074918;28;19991;-72
2022/07/23 01:19:30;;;;;;;;;;;;;;;21.04;64.95;96395.78;5074525;28;19991;-73
2022/07/23 01:21:57;;;;;;;;;;;;;;;20.93;66.20;96398.84;5074657;28;20051;-73
2022/07/23 01:24:23;;;;;;;;;;;;;;;20.85;66.41;96395.75;5074631;28;19956;-73
2022/07/23 01:26:49;;;;;;;;;;;;;;;20.81;68.69;96372.59;5074620;28;19989;-72
2022/07/23 01:29:16;;;;;;;;;;;;;;;20.73;69.05;96382.03;5074511;28;19974;-73
2022/07/23 01:31:42;;;;;;;;;;;;;;;20.70;69.83;96457.19;5074529;28;20348;-74
2022/07/23 01:34:09;;;;;;;;;;;;;;;20.67;69.19;96441.78;5074588;28;19967;-73
2022/07/23 01:36:35;;;;;;;;;;;;;;;20.64;69.39;96427.16;5074367;28;19956;-74
2022/07/23 01:39:02;;;;;;;;;;;;;;;20.63;69.86;96441.53;5073795;28;19964;-73
2022/07/23 01:41:28;;;;;;;;;;;;;;;20.65;69.45;96406.63;5073802;28;19957;-73
2022/07/23 01:43:54;;;;;;;;;;;;;;;20.60;69.71;96406.66;5074317;28;20050;-73
2022/07/23 01:46:20;;;;;;;;;;;;;;;20.60;70.12;96439.44;5074148;28;19958;-74
2022/07/23 01:48:46;;;;;;;;;;;;;;;20.60;70.18;96417.31;5073971;28;20000;-73
2022/07/23 01:51:11;;;;;;;;;;;;;;;20.60;71.41;96443.97;5073974;28;19961;-73
2022/07/23 01:53:37;;;;;;;;;;;;;;;20.60;70.75;96439.44;5073872;28;19998;-73
2022/07/23 01:56:04;;;;;;;;;;;;;;;20.59;69.22;96429.84;5074077;28;19967;-72
2022/07/23 01:58:30;;;;;;;;;;;;;;;20.55;70.88;96425.34;5074133;28;19963;-73
2022/07/23 02:00:56;;;;;;;;;;;;;;;20.51;70.06;96427.00;5073885;28;19963;-73
2022/07/23 02:03:22;;;;;;;;;;;;;;;20.50;68.83;96425.41;5073765;28;20353;-73
2022/07/23 02:05:48;;;;;;;;;;;;;;;20.43;69.72;96429.19;5073731;28;19955;-73
2022/07/23 02:08:14;;;;;;;;;;;;;;;20.33;70.83;96452.47;5073771;28;19954;-73
2022/07/23 02:10:40;;;;;;;;;;;;;;;20.27;72.00;96455.16;5073673;28;20313;-73
2022/07/23 02:13:06;;;;;;;;;;;;;;;20.28;71.81;96458.63;5073807;28;19967;-73
2022/07/23 02:15:32;;;;;;;;;;;;;;;20.30;71.85;96464.47;5073910;28;19972;-73
2022/07/23 02:17:58;;;;;;;;;;;;;;;20.33;71.47;96466.59;5073547;28;19959;-73
2022/07/23 02:20:24;;;;;;;;;;;;;;;20.34;71.64;96475.34;5074190;28;20014;-74
2022/07/23 02:22:50;;;;;;;;;;;;;;;20.34;71.25;96484.13;5073525;28;19963;-73
2022/07/23 02:25:16;;;;;;;;;;;;;;;20.36;71.64;96497.19;5073648;28;19999;-73
2022/07/23 02:27:42;;;;;;;;;;;;;;;20.37;71.74;96510.22;5073406;28;20055;-73
2022/07/23 02:30:08;;;;;;;;;;;;;;;20.38;71.23;96514.47;5073548;28;19981;-73
2022/07/23 02:32:34;;;;;;;;;;;;;;;20.37;70.93;96510.22;5073386;28;20341;-73
2022/07/23 02:35:00;;;;;;;;;;;;;;;20.37;71.88;96515.56;5073323;28;20431;-73
2022/07/23 02:37:26;;;;;;;;;;;;;;;20.32;71.91;96510.25;5055585;28;19983;-72
2022/07/23 02:39:52;;;;;;;;;;;;;;;20.29;71.80;96508.16;5073662;28;19964;-73
2022/07/23 02:42:18;;;;;;;;;;;;;;;20.27;71.54;96503.09;5055455;28;20431;-72
2022/07/23 02:44:44;;;;;;;;;;;;;;;20.27;71.12;96507.66;5073314;28;19995;-73
2022/07/23 02:47:09;;;;;;;;;;;;;;;20.27;71.00;96508.44;5073376;28;19972;-74
2022/07/23 02:49:35;;;;;;;;;;;;;;;20.29;71.39;96518.81;5073148;28;19996;-72
2022/07/23 02:52:01;;;;;;;;;;;;;;;20.30;71.57;96523.06;5072816;28;20006;-73
2022/07/23 02:54:27;;;;;;;;;;;;;;;20.31;71.88;96532.66;5075272;28;20006;-73
2022/07/23 02:56:53;;;;;;;;;;;;;;;20.32;71.32;96531.56;5077562;28;20051;-73
2022/07/23 02:59:19;;;;;;;;;;;;;;;20.31;70.83;96534.53;5076936;28;19999;-73
2022/07/23 03:01:45;;;;;;;;;;;;;;;20.31;70.73;96542.50;5059636;28;20004;-73
2022/07/23 03:04:12;;;;;;;;;;;;;;;20.30;70.52;96541.69;5077864;28;19961;-72
2022/07/23 03:06:38;;;;;;;;;;;;;;;20.31;70.85;96539.84;5077084;28;19956;-72
2022/07/23 03:09:04;;;;;;;;;;;;;;;20.30;70.82;96533.69;5076527;28;20323;-72
2022/07/23 03:11:30;;;;;;;;;;;;;;;20.29;70.65;96529.47;5077129;28;20011;-73
2022/07/23 03:13:56;;;;;;;;;;;;;;;20.28;70.73;96533.19;5077007;28;19965;-73
2022/07/23 03:16:22;;;;;;;;;;;;;;;20.25;68.58;96515.13;5077245;28;19965;-72
2022/07/23 03:18:48;;;;;;;;;;;;;;;20.22;67.31;96505.00;5077391;28;20007;-73
2022/07/23 03:21:14;;;;;;;;;;;;;;;20.22;68.62;96521.78;5076882;28;19959;-73
2022/07/23 03:23:40;;;;;;;;;;;;;;;20.19;66.25;96497.59;5076802;28;20002;-73
2022/07/23 03:26:06;;;;;;;;;;;;;;;20.18;66.87;96518.09;5076826;28;19960;-73
2022/07/23 03:28:32;;;;;;;;;;;;;;;20.20;68.29;96513.28;5076933;28;19958;-73
2022/07/23 03:30:57;;;;;;;;;;;;;;;20.19;68.75;96516.22;5076563;28;20582;-73
2022/07/23 03:33:23;;;;;;;;;;;;;;;20.18;69.09;96519.94;5076941;28;19953;-73
2022/07/23 03:35:49;;;;;;;;;;;;;;;20.13;68.77;96504.81;5076518;28;19965;-73
2022/07/23 03:38:15;;;;;;;;;;;;;;;20.13;68.67;96506.69;5076668;28;20276;-73
2022/07/23 03:40:41;;;;;;;;;;;;;;;20.13;68.80;96510.13;5076789;28;19981;-73
2022/07/23 03:43:07;;;;;;;;;;;;;;;20.12;67.65;96507.78;5076372;28;20525;-73
2022/07/23 03:45:33;;;;;;;;;;;;;;;20.13;68.80;96517.34;5076596;28;19961;-73
2022/07/23 03:47:59;;;;;;;;;;;;;;;20.11;68.91;96530.91;5076681;28;20414;-73
2022/07/23 03:50:25;;;;;;;;;;;;;;;20.11;69.22;96536.22;5058335;28;19981;-72
2022/07/23 03:52:51;;;;;;;;;;;;;;;20.10;69.63;96545.31;5076422;28;19962;-73
2022/07/23 03:55:17;;;;;;;;;;;;;;;20.08;69.12;96550.13;5076243;28;19964;-73
2022/07/23 03:57:43;;;;;;;;;;;;;;;20.05;69.07;96550.66;5076418;28;19961;-73
2022/07/23 04:00:10;;;;;;;;;;;;;;;20.04;69.00;96549.06;5076281;28;19953;-73
2022/07/23 04:02:36;;;;;;;;;;;;;;;19.99;69.44;96555.22;5076621;28;20404;-73
2022/07/23 04:05:03;;;;;;;;;;;;;;;19.96;69.69;96549.66;5076077;28;19955;-72
2022/07/23 04:07:29;;;;;;;;;;;;;;;19.93;69.40;96552.84;5076239;28;19968;-73
2022/07/23 04:09:54;;;;;;;;;;;;;;;19.92;70.02;96560.03;5076006;28;19971;-73
2022/07/23 04:12:20;;;;;;;;;;;;;;;19.92;70.50;96565.38;5075640;28;20333;-73
2022/07/23 04:14:46;;;;;;;;;;;;;;;19.93;70.64;96556.31;5060268;28;20024;-73
2022/07/23 04:17:12;;;;;;;;;;;;;;;19.93;70.39;96561.66;5075275;28;20018;-73
2022/07/23 04:19:41;;;;;;;;;;;;;;;19.93;70.43;96563.50;5075938;28;19970;-72
2022/07/23 04:22:07;;;;;;;;;;;;;;;19.93;71.36;96577.63;5075748;28;19962;-73
2022/07/23 04:24:33;;;;;;;;;;;;;;;19.94;70.83;96570.41;5075867;28;19961;-73
2022/07/23 04:26:59;;;;;;;;;;;;;;;19.90;70.96;96570.16;5075862;28;19960;-73
2022/07/23 04:29:25;;;;;;;;;;;;;;;19.83;70.28;96564.38;5075687;28;20448;-72
2022/07/23 04:31:51;;;;;;;;;;;;;;;19.82;71.57;96574.22;5057715;28;20009;-72
2022/07/23 04:34:17;;;;;;;;;;;;;;;19.86;71.81;96580.59;5075751;28;19964;-73
2022/07/23 04:36:42;;;;;;;;;;;;;;;19.87;71.15;96568.06;5075811;28;19957;-72
2022/07/23 04:39:08;;;;;;;;;;;;;;;19.91;71.30;96576.28;5075388;28;20014;-73
2022/07/23 04:41:34;;;;;;;;;;;;;;;19.95;71.12;96572.00;5075491;28;20411;-73
2022/07/23 04:44:00;;;;;;;;;;;;;;;20.00;71.28;96570.13;5075561;28;19963;-72
2022/07/23 04:46:27;;;;;;;;;;;;;;;20.05;71.60;96572.75;5075754;28;20007;-73
2022/07/23 04:48:53;;;;;;;;;;;;;;;20.10;71.12;96573.81;5075156;28;19959;-73
2022/07/23 04:51:19;;;;;;;;;;;;;;;20.17;71.06;96571.63;5075252;28;20355;-73
2022/07/23 04:53:45;;;;;;;;;;;;;;;20.22;69.54;96563.59;5075242;28;19960;-73
2022/07/23 04:56:11;;;;;;;;;;;;;;;20.24;71.17;96580.91;5075177;28;19964;-72
2022/07/23 04:58:37;;;;;;;;;;;;;;;20.26;71.09;96577.94;5075012;28;19957;-73
2022/07/23 05:01:03;;;;;;;;;;;;;;;20.31;70.84;96569.94;5075182;28;19956;-74
2022/07/23 05:03:29;;;;;;;;;;;;;;;20.39;71.35;96568.53;5075108;28;19956;-72
2022/07/23 05:05:55;;;;;;;;;;;;;;;20.43;71.38;96567.72;5075041;28;19961;-73
2022/07/23 05:08:21;;;;;;;;;;;;;;;20.45;70.70;96567.41;5074889;28;19955;-75
2022/07/23 05:10:47;;;;;;;;;;;;;;;20.44;70.65;96560.50;5074551;28;20002;-76
2022/07/23 05:13:16;;;;;;;;;;;;;;;20.45;70.92;96567.41;5075141;28;19961;-76
2022/07/23 05:15:42;;;;;;;;;;;;;;;20.49;70.48;96568.47;5073831;28;19957;-77
2022/07/23 05:18:08;;;;;;;;;;;;;;;20.52;70.35;96561.81;5074318;28;19965;-77
2022/07/23 05:20:34;;;;;;;;;;;;;;;20.49;70.00;96563.13;5074727;28;19955;-77
2022/07/23 05:23:00;;;;;;;;;;;;;;;20.46;70.70;96567.16;5074497;28;20049;-77
2022/07/23 05:25:26;;;;;;;;;;;;;;;20.44;70.54;96569.28;5074660;28;20465;-76
2022/07/23 05:27:52;;;;;;;;;;;;;;;20.43;70.26;96567.72;5074708;28;20315;-76
2022/07/23 05:30:18;;;;;;;;;;;;;;;20.44;70.83;96568.50;5074367;28;20077;-75
2022/07/23 05:32:44;;;;;;;;;;;;;;;20.48;70.51;96569.53;5074623;28;20002;-75
2022/07/23 05:35:10;;;;;;;;;;;;;;;20.61;70.79;96565.47;5074656;28;19960;-73
2022/07/23 05:37:36;;;;;;;;;;;;;;;20.91;70.50;96572.41;5074221;28;19956;-74
2022/07/23 05:40:03;;;;;;;;;;;;;;;21.15;69.22;96561.78;5074528;28;20413;-74
2022/07/23 05:42:29;;;;;;;;;;;;;;;21.40;68.10;96555.38;5074130;28;19965;-76
2022/07/23 05:44:55;;;;;;;;;;;;;;;21.73;68.12;96560.06;5074450;28;20413;-75
2022/07/23 05:47:20;;;;;;;;;;;;;;;22.12;66.91;96559.03;5074133;28;20014;-74
2022/07/23 05:49:46;;;;;;;;;;;;;;;22.43;65.34;96549.50;5074352;28;20033;-77
2022/07/23 05:52:12;;;;;;;;;;;;;;;22.63;64.31;96526.97;5074085;28;20434;-76
2022/07/23 05:54:38;;;;;;;;;;;;;;;22.78;63.96;96525.13;5073839;28;19959;-75
2022/07/23 05:57:04;;;;;;;;;;;;;;;22.96;63.17;96515.47;5056251;28;19992;-75
2022/07/23 05:59:30;;;;;;;;;;;;;;;23.10;63.34;96519.75;5074000;28;19960;-75
2022/07/23 06:01:56;;;;;;;;;;;;;;;23.26;62.97;96508.75;5073844;28;19957;-75
2022/07/23 06:04:22;;;;;;;;;;;;;;;23.40;61.97;96500.72;5056586;28;19982;-74
2022/07/23 06:06:48;;;;;;;;;;;;;;;23.50;61.57;96492.50;5073734;28;19960;-75
2022/07/23 06:09:14;;;;;;;;;;;;;;;23.58;62.57;96488.28;5073774;28;19998;-75
2022/07/23 06:11:40;;;;;;;;;;;;;;;23.65;62.60;96492.16;5073591;28;20054;-74
2022/07/23 06:14:06;;;;;;;;;;;;;;;;;;5073831;28;20303;-74
2022/07/23 06:16:31;;;;;;;;;;;;;;;23.96;61.11;96510.25;5073982;28;20000;-74
2022/07/23 06:18:57;;;;;;;;;;;;;;;24.02;59.69;96505.56;5073867;28;19969;-74
2022/07/23 06:21:23;;;;;;;;;;;;;;;24.15;60.41;96514.66;5073544;28;20041;-74
2022/07/23 06:23:49;;;;;;;;;;;;;;;24.21;58.83;96508.88;5074250;28;20001;-75
2022/07/23 06:26:15;;;;;;;;;;;;;;;24.18;59.31;96506.00;5073530;28;20426;-75
2022/07/23 06:28:41;;;;;;;;;;;;;;;23.92;60.56;96530.72;5072532;28;20320;-73
2022/07/23 06:31:07;;;;;;;;;;;;;;;23.99;61.51;96533.75;5073823;28;20021;-75
2022/07/23 06:33:33;;;;;;;;;;;;;;;24.20;60.14;96527.94;5073800;28;19966;-74
2022/07/23 06:35:59;;;;;;;;;;;;;;;24.30;60.26;96538.44;5072866;28;19968;-73
2022/07/23 06:38:25;;;;;;;;;;;;;;;24.19;59.56;96529.84;5073322;28;20075;-75
2022/07/23 06:40:52;;;;;;;;;;;;;;;23.92;60.52;96541.44;5064038;28;19973;-73
2022/07/23 06:43:18;;;;;;;;;;;;;;;23.79;61.83;96552.94;5073265;28;20320;-75
2022/07/23 06:45:43;;;;;;;;;;;;;;;23.79;62.81;96566.34;5073388;28;19995;-74
2022/07/23 06:48:09;;;;;;;;;;;;;;;23.81;62.39;96564.16;5073489;28;19962;-75
2022/07/23 06:50:35;;;;;;;;;;;;;;;23.73;61.69;96554.91;5073306;28;19974;-74
2022/07/23 06:53:01;;;;;;;;;;;;;;;23.61;62.39;96566.13;5073236;28;19960;-73
2022/07/23 06:55:27;;;;;;;;;;;;;;;23.54;64.58;96589.03;5073806;28;19965;-75
2022/07/23 06:57:53;;;;;;;;;;;;;;;23.33;62.40;96569.88;5073373;28;19959;-74
2022/07/23 07:00:19;;;;;;;;;;;;;;;23.10;63.29;96575.16;5073216;28;20474;-74
2022/07/23 07:02:45;;;;;;;;;;;;;;;23.00;64.20;96572.63;5073405;28;19966;-74
2022/07/23 07:05:10;;;;;;;;;;;;;;;22.89;64.21;96570.13;5073182;28;19963;-74
2022/07/23 07:07:36;;;;;;;;;;;;;;;22.78;64.58;96578.59;5073763;28;19990;-74
2022/07/23 07:10:03;;;;;;;;;;;;;;;22.67;64.84;96588.66;5073289;28;20509;-75
2022/07/23 07:12:29;;;;;;;;;;;;;;;22.66;64.84;96589.75;5073127;28;19988;-75
2022/07/23 07:14:54;;;;;;;;;;;;;;;22.77;65.34;96590.38;5073020;28;20069;-73
2022/07/23 07:17:20;;;;;;;;;;;;;;;22.93;65.50;96594.41;5073282;28;20000;-74
2022/07/23 07:19:46;;;;;;;;;;;;;;;23.20;65.80;96587.53;5072934;28;20325;-76
2022/07/23 07:22:12;;;;;;;;;;;;;;;23.39;64.04;96574.06;5073667;28;19962;-75
2022/07/23 07:24:38;;;;;;;;;;;;;;;23.58;63.25;96580.13;5073129;28;20418;-76
2022/07/23 07:27:04;;;;;;;;;;;;;;;23.80;62.13;96571.41;5072932;28;19963;-76
2022/07/23 07:29:30;;;;;;;;;;;;;;;24.19;60.86;96562.00;5073333;28;19954;-76
2022/07/23 07:31:56;;;;;;;;;;;;;;;24.55;57.53;96541.59;5072849;28;20044;-75
2022/07/23 07:34:22;;;;;;;;;;;;;;;24.60;58.84;96561.06;5072925;28;20311;-75
2022/07/23 07:36:48;;;;;;;;;;;;;;;24.47;56.99;96549.25;5073217;28;19967;-74
2022/07/23 07:39:14;;;;;;;;;;;;;;;24.43;58.79;96575.09;5073433;28;19960;-74
2022/07/23 07:41:40;;;;;;;;;;;;;;;24.43;58.80;96582.34;5076275;28;19969;-74
2022/07/23 07:44:06;;;;;;;;;;;;;;;24.42;58.69;96572.72;5076626;28;19971;-74
2022/07/23 07:46:32;;;;;;;;;;;;;;;24.57;55.80;96550.94;5076590;28;20011;-74
2022/07/23 07:48:57;;;;;;;;;;;;;;;24.81;56.86;96568.59;5076334;28;20401;-74
2022/07/23 07:51:24;;;;;;;;;;;;;;;25.07;55.51;96566.84;5076629;28;20017;-75
2022/07/23 07:53:49;;;;;;;;;;;;;;;25.30;53.29;96545.34;5076265;28;19977;-76
2022/07/23 07:56:15;;;;;;;;;;;;;;;25.36;54.18;96551.34;5075652;28;19961;-75
2022/07/23 07:58:41;;;;;;;;;;;;;;;25.16;54.00;96556.16;5076606;28;19962;-75
2022/07/23 08:01:07;;;;;;;;;;;;;;;24.98;54.72;96573.28;5076127;28;19965;-75
2022/07/23 08:03:33;;;;;;;;;;;;;;;24.77;54.48;96571.09;5076200;28;20049;-76
2022/07/23 08:05:59;;;;;;;;;;;;;;;24.55;55.79;96581.81;5076137;28;20008;-75
2022/07/23 08:08:25;;;;;;;;;;;;;;;24.36;56.59;96587.31;5075456;28;19971;-75
2022/07/23 08:10:51;;;;;;;;;;;;;;;24.33;56.27;96579.91;5075657;28;20085;-77
2022/07/23 08:13:17;;;;;;;;;;;;;;;24.38;55.91;96577.09;5076320;28;19975;-75
2022/07/23 08:15:43;;;;;;;;;;;;;;;24.45;56.44;96596.25;5075956;28;19954;-76
2022/07/23 08:18:09;;;;;;;;;;;;;;;24.63;55.54;96579.22;5075863;28;19987;-76
2022/07/23 08:20:36;;;;;;;;;;;;;;;24.79;55.04;96576.94;5076544;28;19964;-75
2022/07/23 08:23:08;;;;;;;;;;;;;;;24.81;55.10;96572.06;5076001;28;20318;-75
2022/07/23 08:25:36;;;;;;;;;;;;;;;24.70;53.86;96562.69;5075884;28;19950;-75
2022/07/23 08:28:04;;;;;;;;;;;;;;;24.75;54.42;96567.91;5057941;28;19980;-75
2022/07/23 08:30:31;;;;;;;;;;;;;;;24.75;54.40;96575.19;5075878;28;19975;-75
2022/07/23 08:33:01;;;;;;;;;;;;;;;24.84;54.66;96578.69;5075609;28;19950;-75
2022/07/23 08:35:27;;;;;;;;;;;;;;;25.04;54.01;96564.00;5075971;28;19979;-75
2022/07/23 08:37:53;;;;;;;;;;;;;;;25.16;52.81;96548.09;5075462;28;19970;-75
2022/07/23 08:40:19;;;;;;;;;;;;;;;25.20;53.00;96553.63;5075553;28;19962;-75
2022/07/23 08:42:47;;;;;;;;;;;;;;;25.22;53.60;96567.56;5075641;28;19964;-75
2022/07/23 08:45:15;;;;;;;;;;;;;;;25.23;53.35;96564.56;5075389;28;19964;-75
2022/07/23 08:47:41;;;;;;;;;;;;;;;25.22;52.54;96563.00;5075368;28;19962;-75
2022/07/23 08:50:07;;;;;;;;;;;;;;;25.27;53.23;96580.84;5061627;28;20442;-75
2022/07/23 08:52:33;;;;;;;;;;;;;;;25.30;53.43;96581.03;5074416;28;19961;-75
2022/07/23 08:54:59;;;;;;;;;;;;;;;25.26;53.83;96577.38;5075484;28;19963;-76
2022/07/23 08:57:25;;;;;;;;;;;;;;;25.22;52.61;96568.38;5064134;28;19972;-75
2022/07/23 08:59:51;;;;;;;;;;;;;;;25.21;52.70;96577.50;5075103;28;20376;-75
2022/07/23 09:02:17;;;;;;;;;;;;;;;25.26;53.59;96582.75;5075157;28;20297;-75
2022/07/23 09:04:43;;;;;;;;;;;;;;;25.28;52.08;96567.13;5075590;28;20403;-76
2022/07/23 09:07:09;;;;;;;;;;;;;;;25.41;53.59;96580.75;5075006;28;20007;-76
2022/07/23 09:09:35;;;;;;;;;;;;;;;25.51;53.32;96575.09;5075131;28;19957;-75
2022/07/23 09:12:03;;;;;;;;;;;;;;;25.58;53.34;96577.34;5074843;28;20038;-74
2022/07/23 09:14:36;;;;;;;;;;;;;;;25.58;51.21;96561.22;5074142;28;19965;-74
2022/07/23 09:17:16;;;;;;;;;;;;;;;25.35;50.34;96539.06;5062676;28;20304;-75
2022/07/23 09:19:42;;;;;;;;;;;;;;;25.19;51.74;96555.53;5074639;28;19948;-75
2022/07/23 09:22:17;;;;;;;;;;;;;;;25.11;52.00;96562.47;5074883;28;19958;-77
2022/07/23 09:25:02;;;;;;;;;;;;;;;25.18;52.75;96566.56;5074602;28;19958;-76
2022/07/23 09:27:45;;;;;;;;;;;;;;;25.34;52.95;96567.78;5075019;28;19957;-77
2022/07/23 09:30:11;;;;;;;;;;;;;;;25.50;51.13;96552.03;5074507;28;20413;-76
2022/07/23 09:32:37;;;;;;;;;;;;;;;25.54;50.96;96544.94;5074339;28;19970;-76
2022/07/23 09:35:03;;;;;;;;;;;;;;;25.60;50.46;96538.31;5074666;28;19964;-77
2022/07/23 09:37:29;;;;;;;;;;;;;;;25.59;49.40;96541.31;5074264;28;19967;-76
2022/07/23 09:40:03;;;;;;;;;;;;;;;25.50;51.40;96552.81;5074817;28;19960;-76
2022/07/23 09:42:28;;;;;;;;;;;;;;;25.49;49.89;96535.16;5075031;28;19982;-76
2022/07/23 09:44:55;;;;;;;;;;;;;;;25.54;50.38;96544.16;5074154;28;20437;-76
2022/07/23 09:47:22;;;;;;;;;;;;;;;25.67;51.02;96552.06;5074328;28;20408;-75
2022/07/23 09:49:57;;;;;;;;;;;;;;;25.77;49.44;96539.47;5074070;28;19958;-75
2022/07/23 09:52:28;;;;;;;;;;;;;;;25.72;49.57;96535.81;5056015;28;19973;-76
2022/07/23 09:55:00;;;;;;;;;;;;;;;25.75;50.09;96545.16;5073897;28;20448;-77
2022/07/23 09:57:27;;;;;;;;;;;;;;;25.85;49.50;96538.66;5074187;28;19961;-76
2022/07/23 09:59:55;;;;;;;;;;;;;;;25.98;51.14;96572.72;5074215;28;19965;-76
2022/07/23 10:02:21;;;;;;;;;;;;;;;26.11;48.90;96550.28;5074150;28;19963;-76
2022/07/23 10:04:47;;;;;;;;;;;;;;;26.26;49.89;96569.72;5074053;28;19969;-76
2022/07/23 10:07:13;;;;;;;;;;;;;;;26.51;49.58;96563.53;5074101;28;19953;-76
2022/07/23 10:09:40;;;;;;;;;;;;;;;26.71;48.84;96546.00;5073929;28;19956;-75
2022/07/23 10:14:56;;;;;;;;;;;;;;;26.97;47.72;96555.91;5073880;28;20322;-76
2022/07/23 10:17:21;;;;;;;;;;;;;;;27.05;47.86;96563.16;5073706;28;19954;-75
2022/07/23 10:19:47;;;;;;;;;;;;;;;27.22;46.86;96556.94;5074295;28;20025;-76
2022/07/23 10:22:20;;;;;;;;;;;;;;;27.40;46.11;96554.94;5073379;28;20338;-77
2022/07/23 10:24:59;;;;;;;;;;;;;;;27.54;45.85;96552.81;5073941;28;19958;-77
2022/07/23 10:27:43;;;;;;;;;;;;;;;27.62;44.89;96564.69;5059017;28;20325;-77
2022/07/23 10:30:12;;;;;;;;;;;;;;;27.66;44.68;96567.53;5073761;28;19963;-76
2022/07/23 10:32:38;;;;;;;;;;;;;;;27.69;44.70;96580.31;5073677;28;20385;-77
2022/07/23 10:35:10;;;;;;;;;;;;;;;27.72;44.19;96577.78;5073607;28;19954;-76
2022/07/23 10:37:43;;;;;;;;;;;;;;;27.85;45.34;96577.88;5073828;28;19959;-76
2022/07/23 10:40:08;;;;;;;;;;;;;;;27.99;46.56;96578.44;5072370;28;19953;-76
2022/07/23 10:42:36;;;;;;;;;;;;;;;28.12;44.27;96563.13;5073803;28;19958;-77
2022/07/23 10:45:21;;;;;;;;;;;;;;;28.12;44.28;96560.44;5073312;28;19962;-77
2022/07/23 10:47:48;;;;;;;;;;;;;;;28.14;44.69;96563.59;5073662;28;19957;-77
2022/07/23 10:50:21;;;;;;;;;;;;;;;28.25;44.35;96570.16;5073255;28;19957;-76
2022/07/23 10:53:05;;;;;;;;;;;;;;;28.39;44.15;96569.09;5055347;28;19959;-77
2022/07/23 10:55:31;;;;;;;;;;;;;;;28.31;43.47;96578.84;5073640;28;19977;-76
2022/07/23 10:57:57;;;;;;;;;;;;;;;28.23;44.29;96577.78;5073512;28;19958;-77
2022/07/23 11:00:24;;;;;;;;;;;;;;;28.26;45.01;96596.00;5073791;28;19967;-77
2022/07/23 11:02:51;;;;;;;;;;;;;;;28.43;43.97;96576.22;5073080;28;19959;-75
2022/07/23 11:05:22;;;;;;;;;;;;;;;28.62;43.17;96569.53;5073416;28;19966;-76
2022/07/23 11:08:03;;;;;;;;;;;;;;;28.76;44.17;96574.66;5073070;28;19964;-76
2022/07/23 11:10:36;;;;;;;;;;;;;;;28.82;44.29;96581.44;5073127;28;19950;-77
2022/07/23 11:13:21;;;;;;;;;;;;;;;28.92;43.78;96578.31;5073094;28;20004;-73
2022/07/23 11:16:02;;;;;;;;;;;;;;;28.99;43.60;96580.47;5075330;28;19966;-73
2022/07/23 11:18:40;;;;;;;;;;;;;;;28.73;43.91;96582.31;5077098;28;19961;-73
2022/07/23 11:21:30;;;;;;;;;;;;;;;28.49;43.06;96580.28;5077038;28;19957;-73
2022/07/23 11:23:56;;;;;;;;;;;;;;;28.34;41.96;96570.88;5077091;28;19965;-73
2022/07/23 11:26:48;;;;;;;;;;;;;;;28.27;41.80;96573.31;5076802;28;20392;-73
2022/07/23 11:29:27;;;;;;;;;;;;;;;28.35;42.44;96582.47;5072811;28;19961;-73
2022/07/23 11:31:53;;;;;;;;;;;;;;;28.49;42.31;96580.28;5076555;28;19963;-72
2022/07/23 11:34:37;;;;;;;;;;;;;;;28.48;42.36;96581.38;5059211;28;19993;-73
2022/07/23 11:37:04;;;;;;;;;;;;;;;28.42;41.65;96576.53;5062941;28;19959;-73
2022/07/23 11:39:30;;;;;;;;;;;;;;;28.30;41.93;96574.56;5076634;28;19960;-73
2022/07/23 11:41:57;;;;;;;;;;;;;;;28.29;40.02;96562.19;5076777;28;19977;-73
2022/07/23 11:44:26;;;;;;;;;;;;;;;28.22;39.61;96560.00;5076547;28;19967;-73
2022/07/23 11:46:56;;;;;;;;;;;;;;;28.19;40.18;96568.00;5076562;28;19955;-73
2022/07/23 11:49:22;;;;;;;;;;;;;;;28.21;40.59;96571.16;5076402;28;19962;-73
2022/07/23 11:52:02;;;;;;;;;;;;;;;28.18;42.58;96579.88;5076883;28;19979;-73
2022/07/23 11:54:28;;;;;;;;;;;;;;;28.25;43.23;96583.63;5076297;28;19964;-73
2022/07/23 11:56:55;;;;;;;;;;;;;;;28.50;42.59;96581.88;5058380;28;20393;-73
2022/07/23 11:59:21;;;;;;;;;;;;;;;28.86;41.88;96568.84;5075275;28;19973;-73
2022/07/23 12:01:59;;;;;;;;;;;;;;;29.07;40.56;96564.16;5075807;28;20393;-73
2022/07/23 12:04:37;;;;;;;;;;;;;;;29.09;38.91;96548.41;5076202;28;19960;-73
2022/07/23 12:07:03;;;;;;;;;;;;;;;29.14;40.36;96558.22;5076289;28;19959;-73
2022/07/23 12:09:29;;;;;;;;;;;;;;;29.24;40.38;96555.09;5076189;28;19970;-73
2022/07/23 12:11:59;;;;;;;;;;;;;;;29.22;39.73;96556.56;5057888;28;19993;-73
2022/07/23 12:14:25;;;;;;;;;;;;;;;29.02;40.06;96553.59;5076364;28;20364;-73
2022/07/23 12:17:06;;;;;;;;;;;;;;;28.85;40.15;96554.56;5058022;28;19996;-73
2022/07/23 12:19:32;;;;;;;;;;;;;;;28.73;40.80;96554.53;5075910;28;20001;-73
2022/07/23 12:21:58;;;;;;;;;;;;;;;28.60;40.26;96558.28;5076059;28;20032;-73
2022/07/23 12:24:24;;;;;;;;;;;;;;;28.41;41.48;96561.44;5075171;28;19965;-73
2022/07/23 12:27:09;;;;;;;;;;;;;;;28.22;40.59;96562.72;5074796;28;20025;-73
2022/07/23 12:29:36;;;;;;;;;;;;;;;28.10;41.53;96571.53;5063036;28;20418;-73
2022/07/23 12:32:02;;;;;;;;;;;;;;;28.25;42.87;96578.25;5075635;28;19999;-73
2022/07/23 12:34:28;;;;;;;;;;;;;;;28.63;41.40;96565.75;5075629;28;19968;-73
2022/07/23 12:36:53;;;;;;;;;;;;;;;28.97;42.23;96569.22;5075507;28;19959;-73
2022/07/23 12:39:32;;;;;;;;;;;;;;;29.31;40.47;96560.72;5075743;28;20028;-73
2022/07/23 12:41:57;;;;;;;;;;;;;;;29.47;39.48;96551.97;5075626;28;20329;-74
2022/07/23 12:44:23;;;;;;;;;;;;;;;29.28;40.06;96566.03;5075815;28;19962;-73
2022/07/23 12:46:51;;;;;;;;;;;;;;;29.03;40.30;96563.25;5075429;28;20007;-73
2022/07/23 12:49:27;;;;;;;;;;;;;;;28.72;40.63;96566.44;5075444;28;19963;-73
2022/07/23 12:51:53;;;;;;;;;;;;;;;28.43;41.06;96567.31;5075537;28;20335;-73